Time,TemperatureF,DewpointF,PressureIn,WindDirection,WindDirectionDegrees,WindSpeedMPH,WindSpeedGustMPH,Humidity,HourlyPrecipIn,Conditions,Clouds,dailyrainin,SoftwareType,DateUTC
2013-05-30 00:00:00,69.0,62.2,30.09,SSE,158,0.0,0.0,79,0.00,,,0.00,WUHU216HW,2013-05-30 04:00:00,
2013-05-30 00:01:00,69.0,62.2,30.09,SSE,158,0.0,0.0,79,0.00,,,0.00,WUHU216HW,2013-05-30 04:01:00,
2013-05-30 00:02:00,68.9,62.1,30.09,SSE,158,0.0,0.0,79,0.00,,,0.00,WUHU216HW,2013-05-30 04:02:00,
2013-05-30 00:07:00,68.9,62.1,30.09,SSE,158,0.0,0.0,79,0.00,,,0.00,WUHU216HW,2013-05-30 04:07:00,
2013-05-30 00:12:00,68.9,62.1,30.10,SSE,158,0.0,0.0,79,0.00,,,0.00,WUHU216HW,2013-05-30 04:12:00,
2013-05-30 00:17:00,68.7,61.9,30.09,SSE,158,0.0,0.0,79,0.00,,,0.00,WUHU216HW,2013-05-30 04:17:00,
2013-05-30 00:22:00,68.5,61.8,30.10,SSE,158,0.0,0.0,79,0.00,,,0.00,WUHU216HW,2013-05-30 04:22:00,
2013-05-30 00:28:00,68.7,61.9,30.10,SSE,158,0.0,0.0,79,0.00,,,0.00,WUHU216HW,2013-05-30 04:28:00,
2013-05-30 00:33:00,68.7,61.9,30.10,SSE,158,0.0,0.0,79,0.00,,,0.00,WUHU216HW,2013-05-30 04:33:00,
2013-05-30 00:38:00,68.9,62.1,30.10,SSE,158,0.0,0.0,79,0.00,,,0.00,WUHU216HW,2013-05-30 04:38:00,
2013-05-30 00:43:00,68.7,61.9,30.10,SSE,158,0.0,0.0,79,0.00,,,0.00,WUHU216HW,2013-05-30 04:43:00,
2013-05-30 00:48:00,68.3,61.6,30.10,SSE,158,0.0,0.0,79,0.00,,,0.00,WUHU216HW,2013-05-30 04:48:00,
2013-05-30 00:53:00,67.8,61.1,30.10,SSE,158,0.0,0.0,79,0.00,,,0.00,WUHU216HW,2013-05-30 04:53:00,
2013-05-30 00:58:00,67.8,61.1,30.09,SSE,158,0.0,0.0,79,0.00,,,0.00,WUHU216HW,2013-05-30 04:58:00,
2013-05-30 01:03:00,67.6,60.9,30.10,SSE,158,0.0,0.0,79,0.00,,,0.00,WUHU216HW,2013-05-30 05:03:00,
2013-05-30 01:08:00,67.6,60.9,30.09,SSE,158,0.0,0.0,79,0.00,,,0.00,WUHU216HW,2013-05-30 05:08:00,
2013-05-30 01:13:00,67.6,60.9,30.10,SSE,158,0.0,0.0,79,0.00,,,0.00,WUHU216HW,2013-05-30 05:13:00,
2013-05-30 01:19:00,67.6,61.3,30.10,SSE,158,0.0,0.0,80,0.00,,,0.00,WUHU216HW,2013-05-30 05:19:00,
2013-05-30 01:24:00,67.8,61.5,30.10,SSE,158,0.0,0.0,80,0.00,,,0.00,WUHU216HW,2013-05-30 05:24:00,
2013-05-30 01:29:00,67.8,61.5,30.10,SSE,158,0.0,0.0,80,0.00,,,0.00,WUHU216HW,2013-05-30 05:29:00,
2013-05-30 01:34:00,67.6,61.3,30.09,SSE,158,0.0,0.0,80,0.00,,,0.00,WUHU216HW,2013-05-30 05:34:00,
2013-05-30 01:39:00,67.4,61.1,30.09,SSE,158,0.0,0.0,80,0.00,,,0.00,WUHU216HW,2013-05-30 05:39:00,
2013-05-30 01:44:00,66.9,60.2,30.10,SSE,158,0.0,0.0,79,0.00,,,0.00,WUHU216HW,2013-05-30 05:44:00,
2013-05-30 01:49:00,66.9,60.2,30.10,SSE,158,0.0,0.0,79,0.00,,,0.00,WUHU216HW,2013-05-30 05:49:00,
2013-05-30 01:54:00,67.2,60.6,30.10,SSE,158,0.0,0.0,79,0.00,,,0.00,WUHU216HW,2013-05-30 05:54:00,
2013-05-30 01:59:00,67.1,60.4,30.11,SSE,158,0.0,0.0,79,0.00,,,0.00,WUHU216HW,2013-05-30 05:59:00,
2013-05-30 02:05:00,66.5,59.8,30.10,SSE,158,0.0,0.0,79,0.00,,,0.00,WUHU216HW,2013-05-30 06:05:00,
2013-05-30 02:10:00,66.0,59.3,30.10,SSE,158,0.0,0.0,79,0.00,,,0.00,WUHU216HW,2013-05-30 06:10:00,
2013-05-30 02:15:00,66.3,59.7,30.10,SSE,158,0.0,0.0,79,0.00,,,0.00,WUHU216HW,2013-05-30 06:15:00,
2013-05-30 02:20:00,66.3,59.7,30.10,SSE,158,0.0,0.0,79,0.00,,,0.00,WUHU216HW,2013-05-30 06:20:00,
2013-05-30 02:25:00,66.0,59.3,30.10,SSE,158,0.0,0.0,79,0.00,,,0.00,WUHU216HW,2013-05-30 06:25:00,
2013-05-30 02:30:00,65.8,59.1,30.10,SSE,158,0.0,0.0,79,0.00,,,0.00,WUHU216HW,2013-05-30 06:30:00,
2013-05-30 02:35:00,65.8,59.1,30.11,SSE,158,0.0,0.0,79,0.00,,,0.00,WUHU216HW,2013-05-30 06:35:00,
2013-05-30 02:40:00,66.0,59.3,30.11,SSE,158,0.0,0.0,79,0.00,,,0.00,WUHU216HW,2013-05-30 06:40:00,
2013-05-30 02:45:00,66.0,59.3,30.11,SSE,158,0.0,0.0,79,0.00,,,0.00,WUHU216HW,2013-05-30 06:45:00,
2013-05-30 02:50:00,66.0,59.3,30.11,SSE,158,0.0,0.0,79,0.00,,,0.00,WUHU216HW,2013-05-30 06:50:00,
2013-05-30 02:55:00,66.0,59.3,30.11,SSE,158,0.0,0.0,79,0.00,,,0.00,WUHU216HW,2013-05-30 06:55:00,
2013-05-30 03:01:00,65.8,59.1,30.11,SSE,158,0.0,0.0,79,0.00,,,0.00,WUHU216HW,2013-05-30 07:01:00,
2013-05-30 03:06:00,65.4,58.8,30.11,SSE,158,0.0,0.0,79,0.00,,,0.00,WUHU216HW,2013-05-30 07:06:00,
2013-05-30 03:11:00,65.3,58.6,30.11,SSE,158,0.0,0.0,79,0.00,,,0.00,WUHU216HW,2013-05-30 07:11:00,
2013-05-30 03:16:00,65.4,58.8,30.11,SSE,158,0.0,0.0,79,0.00,,,0.00,WUHU216HW,2013-05-30 07:16:00,
2013-05-30 03:21:00,65.4,58.8,30.10,SSE,158,0.0,0.0,79,0.00,,,0.00,WUHU216HW,2013-05-30 07:21:00,
2013-05-30 03:26:00,65.3,58.6,30.10,SSE,158,0.0,0.0,79,0.00,,,0.00,WUHU216HW,2013-05-30 07:26:00,
2013-05-30 03:31:00,65.1,58.4,30.10,SSE,158,0.0,0.0,79,0.00,,,0.00,WUHU216HW,2013-05-30 07:31:00,
2013-05-30 03:37:00,64.9,58.2,30.10,SSE,158,0.0,0.0,79,0.00,,,0.00,WUHU216HW,2013-05-30 07:37:00,
2013-05-30 03:42:00,64.9,58.2,30.10,SSE,158,0.0,0.0,79,0.00,,,0.00,WUHU216HW,2013-05-30 07:42:00,
2013-05-30 03:47:00,64.9,58.2,30.11,SSE,158,0.0,0.0,79,0.00,,,0.00,WUHU216HW,2013-05-30 07:47:00,
2013-05-30 03:52:00,64.7,58.0,30.11,SSE,158,0.0,0.0,79,0.00,,,0.00,WUHU216HW,2013-05-30 07:52:00,
2013-05-30 03:57:00,64.7,58.0,30.11,SSE,158,0.0,0.0,79,0.00,,,0.00,WUHU216HW,2013-05-30 07:57:00,
2013-05-30 04:02:00,64.7,58.0,30.11,SSE,158,0.0,0.0,79,0.00,,,0.00,WUHU216HW,2013-05-30 08:02:00,
2013-05-30 04:07:00,64.5,57.9,30.11,SSE,158,0.0,0.0,79,0.00,,,0.00,WUHU216HW,2013-05-30 08:07:00,
2013-05-30 04:12:00,64.2,57.5,30.12,SSE,158,0.0,0.0,79,0.00,,,0.00,WUHU216HW,2013-05-30 08:12:00,
2013-05-30 04:17:00,64.2,57.5,30.12,SSE,158,0.0,0.0,79,0.00,,,0.00,WUHU216HW,2013-05-30 08:17:00,
2013-05-30 04:22:00,64.2,57.5,30.12,SSE,158,0.0,0.0,79,0.00,,,0.00,WUHU216HW,2013-05-30 08:22:00,
2013-05-30 04:28:00,64.2,57.5,30.12,SSE,158,0.0,0.0,79,0.00,,,0.00,WUHU216HW,2013-05-30 08:28:00,
2013-05-30 04:33:00,64.2,57.5,30.13,SSE,158,0.0,0.0,79,0.00,,,0.00,WUHU216HW,2013-05-30 08:33:00,
2013-05-30 04:38:00,64.2,57.5,30.13,SSE,158,0.0,0.0,79,0.00,,,0.00,WUHU216HW,2013-05-30 08:38:00,
2013-05-30 04:43:00,64.2,57.3,30.13,SSE,158,0.0,0.0,79,0.00,,,0.00,WUHU216HW,2013-05-30 08:43:00,
2013-05-30 04:48:00,64.0,57.3,30.13,SSE,158,0.0,0.0,79,0.00,,,0.00,WUHU216HW,2013-05-30 08:48:00,
2013-05-30 04:53:00,64.2,57.5,30.13,SSE,158,0.0,0.0,79,0.00,,,0.00,WUHU216HW,2013-05-30 08:53:00,
2013-05-30 04:58:00,64.2,57.5,30.14,SSE,158,0.0,0.0,79,0.00,,,0.00,WUHU216HW,2013-05-30 08:58:00,
2013-05-30 05:04:00,64.2,57.5,30.14,SSE,158,0.0,0.0,79,0.00,,,0.00,WUHU216HW,2013-05-30 09:04:00,
2013-05-30 05:09:00,64.0,57.3,30.14,SSE,158,0.0,0.0,79,0.00,,,0.00,WUHU216HW,2013-05-30 09:09:00,
2013-05-30 05:14:00,64.2,57.5,30.14,SSE,158,0.0,0.0,79,0.00,,,0.00,WUHU216HW,2013-05-30 09:14:00,
2013-05-30 05:19:00,64.4,57.7,30.14,SSE,158,0.0,0.0,79,0.00,,,0.00,WUHU216HW,2013-05-30 09:19:00,
2013-05-30 05:24:00,64.7,58.0,30.15,SSE,158,0.0,0.0,79,0.00,,,0.00,WUHU216HW,2013-05-30 09:24:00,
2013-05-30 05:29:00,64.5,57.9,30.14,SSE,158,0.0,0.0,79,0.00,,,0.00,WUHU216HW,2013-05-30 09:29:00,
2013-05-30 05:34:00,64.5,58.0,30.15,SSE,158,0.0,0.0,79,0.00,,,0.00,WUHU216HW,2013-05-30 09:34:00,
2013-05-30 05:39:00,64.2,57.5,30.15,SSE,158,0.0,0.0,79,0.00,,,0.00,WUHU216HW,2013-05-30 09:39:00,
2013-05-30 05:45:00,64.0,57.3,30.14,SSE,158,0.0,0.0,79,0.00,,,0.00,WUHU216HW,2013-05-30 09:45:00,
2013-05-30 05:49:00,64.0,57.3,30.14,SSE,158,0.0,0.0,79,0.00,,,0.00,WUHU216HW,2013-05-30 09:49:00,
2013-05-30 05:55:00,63.6,57.0,30.15,SSE,158,0.0,0.0,79,0.00,,,0.00,WUHU216HW,2013-05-30 09:55:00,
2013-05-30 06:00:00,63.6,57.0,30.15,SSE,158,0.0,0.0,79,0.00,,,0.00,WUHU216HW,2013-05-30 10:00:00,
2013-05-30 06:05:00,63.6,57.0,30.15,SSE,158,0.0,0.0,79,0.00,,,0.00,WUHU216HW,2013-05-30 10:05:00,
2013-05-30 06:10:00,63.6,57.0,30.16,SSE,158,0.0,0.0,79,0.00,,,0.00,WUHU216HW,2013-05-30 10:10:00,
2013-05-30 06:15:00,63.6,57.0,30.16,SSE,158,0.0,0.0,79,0.00,,,0.00,WUHU216HW,2013-05-30 10:15:00,
2013-05-30 06:20:00,63.8,57.0,30.16,SSE,158,0.0,0.0,79,0.00,,,0.00,WUHU216HW,2013-05-30 10:20:00,
2013-05-30 06:25:00,64.0,57.3,30.16,SSE,158,0.0,0.0,79,0.00,,,0.00,WUHU216HW,2013-05-30 10:25:00,
2013-05-30 06:30:00,63.6,57.0,30.16,SSE,158,0.0,0.0,79,0.00,,,0.00,WUHU216HW,2013-05-30 10:30:00,
2013-05-30 06:35:00,63.5,56.8,30.16,SSE,158,0.0,0.0,79,0.00,,,0.00,WUHU216HW,2013-05-30 10:35:00,
2013-05-30 06:40:00,63.5,56.8,30.17,SSE,158,0.0,0.0,79,0.00,,,0.00,WUHU216HW,2013-05-30 10:40:00,
2013-05-30 06:46:00,63.5,56.8,30.16,SSE,158,0.0,0.0,79,0.00,,,0.00,WUHU216HW,2013-05-30 10:46:00,
2013-05-30 06:51:00,63.5,56.8,30.17,SSE,158,0.0,0.0,79,0.00,,,0.00,WUHU216HW,2013-05-30 10:51:00,
2013-05-30 06:56:00,63.6,57.0,30.17,SSE,158,0.0,0.0,79,0.00,,,0.00,WUHU216HW,2013-05-30 10:56:00,
2013-05-30 07:01:00,63.8,57.2,30.17,SSE,158,0.0,0.0,79,0.00,,,0.00,WUHU216HW,2013-05-30 11:01:00,
2013-05-30 07:06:00,63.6,57.0,30.17,SSE,158,0.0,0.0,79,0.00,,,0.00,WUHU216HW,2013-05-30 11:06:00,
2013-05-30 07:11:00,63.6,57.0,30.17,SSE,158,0.0,0.0,79,0.00,,,0.00,WUHU216HW,2013-05-30 11:11:00,
2013-05-30 07:16:00,64.2,57.5,30.17,SSE,158,0.0,0.0,79,0.00,,,0.00,WUHU216HW,2013-05-30 11:16:00,
2013-05-30 07:21:00,64.5,57.9,30.17,SSE,158,0.0,0.0,79,0.00,,,0.00,WUHU216HW,2013-05-30 11:21:00,
2013-05-30 07:26:00,64.2,57.5,30.17,SSE,158,0.0,0.0,79,0.00,,,0.00,WUHU216HW,2013-05-30 11:26:00,
2013-05-30 07:31:00,64.5,57.9,30.18,SSE,158,0.0,0.0,79,0.00,,,0.00,WUHU216HW,2013-05-30 11:31:00,
2013-05-30 07:36:00,65.1,58.4,30.18,SSE,158,0.0,0.0,79,0.00,,,0.00,WUHU216HW,2013-05-30 11:36:00,
2013-05-30 07:42:00,65.3,58.6,30.17,SSE,158,0.0,0.0,79,0.00,,,0.00,WUHU216HW,2013-05-30 11:42:00,
2013-05-30 07:46:00,66.0,59.3,30.18,SSE,158,0.0,0.0,79,0.00,,,0.00,WUHU216HW,2013-05-30 11:46:00,
2013-05-30 07:52:00,66.7,60.0,30.18,SSE,158,0.0,0.0,79,0.00,,,0.00,WUHU216HW,2013-05-30 11:52:00,
2013-05-30 07:57:00,67.2,60.9,30.18,SSE,158,0.0,0.0,80,0.00,,,0.00,WUHU216HW,2013-05-30 11:57:00,
2013-05-30 08:02:00,68.1,61.8,30.18,SSE,158,0.0,0.0,80,0.00,,,0.00,WUHU216HW,2013-05-30 12:02:00,
2013-05-30 08:07:00,69.0,62.6,30.18,SSE,158,0.0,0.0,80,0.00,,,0.00,WUHU216HW,2013-05-30 12:07:00,
2013-05-30 08:12:00,69.9,63.5,30.18,SSE,158,0.0,0.0,80,0.00,,,0.00,WUHU216HW,2013-05-30 12:12:00,
2013-05-30 08:17:00,71.2,64.5,30.18,SSE,158,0.0,0.0,80,0.00,,,0.00,WUHU216HW,2013-05-30 12:17:00,
2013-05-30 08:22:00,71.2,64.3,30.18,SSE,158,0.0,0.0,78,0.00,,,0.00,WUHU216HW,2013-05-30 12:22:00,
2013-05-30 08:28:00,71.4,64.1,30.19,SE,135,0.0,0.0,78,0.00,,,0.00,WUHU216HW,2013-05-30 12:28:00,
2013-05-30 08:33:00,71.7,64.5,30.19,SSE,158,1.1,1.1,78,0.00,,,0.00,WUHU216HW,2013-05-30 12:33:00,
2013-05-30 08:38:00,72.1,64.9,30.19,SE,135,0.0,1.1,78,0.00,,,0.00,WUHU216HW,2013-05-30 12:38:00,
2013-05-30 08:43:00,72.6,65.4,30.19,SE,135,0.0,0.0,78,0.00,,,0.00,WUHU216HW,2013-05-30 12:43:00,
2013-05-30 08:48:00,73.4,65.4,30.19,East,90,0.0,0.0,76,0.00,,,0.00,WUHU216HW,2013-05-30 12:48:00,
2013-05-30 08:53:00,73.5,65.5,30.19,SE,135,0.0,0.0,76,0.00,,,0.00,WUHU216HW,2013-05-30 12:53:00,
2013-05-30 08:58:00,73.9,65.9,30.19,SE,135,0.0,0.0,76,0.00,,,0.00,WUHU216HW,2013-05-30 12:58:00,
2013-05-30 09:04:00,74.3,65.8,30.19,SE,135,0.0,2.0,75,0.00,,,0.00,WUHU216HW,2013-05-30 13:04:00,
2013-05-30 09:09:00,75.0,66.5,30.20,SSE,158,0.0,2.0,75,0.00,,,0.00,WUHU216HW,2013-05-30 13:09:00,
2013-05-30 09:14:00,75.3,66.5,30.19,ESE,113,1.1,3.8,74,0.00,,,0.00,WUHU216HW,2013-05-30 13:14:00,
2013-05-30 09:19:00,75.0,66.1,30.19,ESE,113,0.0,3.8,74,0.00,,,0.00,WUHU216HW,2013-05-30 13:19:00,
2013-05-30 09:24:00,75.0,66.1,30.19,SE,135,0.0,1.3,74,0.00,,,0.00,WUHU216HW,2013-05-30 13:24:00,
2013-05-30 09:29:00,75.7,66.8,30.19,ESE,113,0.0,1.3,74,0.00,,,0.00,WUHU216HW,2013-05-30 13:29:00,
2013-05-30 09:34:00,75.9,66.2,30.19,East,90,0.0,1.5,72,0.00,,,0.00,WUHU216HW,2013-05-30 13:34:00,
2013-05-30 09:39:00,76.8,67.5,30.18,ESE,113,0.0,1.5,73,0.00,,,0.00,WUHU216HW,2013-05-30 13:39:00,
2013-05-30 09:44:00,77.1,67.1,30.19,ESE,113,1.5,1.5,71,0.00,,,0.00,WUHU216HW,2013-05-30 13:44:00,
2013-05-30 09:49:00,77.0,66.9,30.19,SE,135,0.0,3.3,71,0.00,,,0.00,WUHU216HW,2013-05-30 13:49:00,
2013-05-30 09:55:00,76.6,66.9,30.19,South,180,1.1,3.3,71,0.00,,,0.00,WUHU216HW,2013-05-30 13:55:00,
2013-05-30 10:00:00,77.1,67.3,30.19,SSE,158,2.4,2.4,72,0.00,,,0.00,WUHU216HW,2013-05-30 14:00:00,
2013-05-30 10:05:00,77.7,67.2,30.19,SSE,158,7.3,7.3,70,0.00,,,0.00,WUHU216HW,2013-05-30 14:05:00,
2013-05-30 10:10:00,77.7,67.2,30.19,SSE,158,0.2,7.3,70,0.00,,,0.00,WUHU216HW,2013-05-30 14:10:00,
2013-05-30 10:15:00,77.5,67.0,30.19,ESE,113,1.1,5.1,70,0.00,,,0.00,WUHU216HW,2013-05-30 14:15:00,
2013-05-30 10:20:00,77.5,67.0,30.19,SE,135,2.4,8.0,70,0.00,,,0.00,WUHU216HW,2013-05-30 14:20:00,
2013-05-30 10:25:00,77.3,66.8,30.19,SE,135,2.4,8.0,70,0.00,,,0.00,WUHU216HW,2013-05-30 14:25:00,
2013-05-30 10:30:00,78.0,67.0,30.19,SSE,158,2.2,6.4,69,0.00,,,0.00,WUHU216HW,2013-05-30 14:30:00,
2013-05-30 10:35:00,78.9,68.3,30.19,SE,135,5.5,6.0,70,0.00,,,0.00,WUHU216HW,2013-05-30 14:35:00,
2013-05-30 10:40:00,78.9,66.8,30.19,SE,135,5.1,5.5,68,0.00,,,0.00,WUHU216HW,2013-05-30 14:40:00,
2013-05-30 10:46:00,78.8,66.8,30.19,SSE,158,5.3,5.3,67,0.00,,,0.00,WUHU216HW,2013-05-30 14:46:00,
2013-05-30 10:51:00,78.6,67.1,30.18,SE,135,1.7,5.3,68,0.00,,,0.00,WUHU216HW,2013-05-30 14:51:00,
2013-05-30 10:56:00,79.1,67.2,30.18,SE,135,0.0,4.6,67,0.00,,,0.00,WUHU216HW,2013-05-30 14:56:00,
2013-05-30 11:01:00,79.8,67.0,30.18,SE,135,5.5,5.8,65,0.00,,,0.00,WUHU216HW,2013-05-30 15:01:00,
2013-05-30 11:06:00,79.3,66.5,30.19,SE,135,1.7,5.8,65,0.00,,,0.00,WUHU216HW,2013-05-30 15:06:00,
2013-05-30 11:11:00,79.1,66.9,30.19,SSE,158,8.2,8.2,65,0.00,,,0.00,WUHU216HW,2013-05-30 15:11:00,
2013-05-30 11:16:00,79.3,66.5,30.18,SE,135,3.1,8.2,65,0.00,,,0.00,WUHU216HW,2013-05-30 15:16:00,
2013-05-30 11:22:00,79.3,67.4,30.18,SSE,158,9.6,9.6,67,0.00,,,0.00,WUHU216HW,2013-05-30 15:22:00,
2013-05-30 11:27:00,79.5,66.8,30.19,ENE,68,1.7,9.6,65,0.00,,,0.00,WUHU216HW,2013-05-30 15:27:00,
2013-05-30 11:32:00,79.8,66.5,30.19,SE,135,2.2,5.1,64,0.00,,,0.00,WUHU216HW,2013-05-30 15:32:00,
2013-05-30 11:37:00,79.3,66.9,30.19,ESE,113,0.0,5.3,66,0.00,,,0.00,WUHU216HW,2013-05-30 15:37:00,
2013-05-30 11:42:00,78.9,66.8,30.18,NW,315,0.4,5.3,67,0.00,,,0.00,WUHU216HW,2013-05-30 15:42:00,
2013-05-30 11:47:00,79.3,66.9,30.18,ESE,113,0.8,4.6,66,0.00,,,0.00,WUHU216HW,2013-05-30 15:47:00,
2013-05-30 11:52:00,79.5,66.7,30.18,SSE,158,1.3,4.6,66,0.00,,,0.00,WUHU216HW,2013-05-30 15:52:00,
2013-05-30 11:57:00,79.7,66.8,30.18,SSW,203,0.0,5.8,65,0.00,,,0.00,WUHU216HW,2013-05-30 15:57:00,
2013-05-30 12:02:00,79.3,66.9,30.18,SW,225,4.9,6.2,66,0.00,,,0.00,WUHU216HW,2013-05-30 16:02:00,
2013-05-30 12:07:00,78.6,66.7,30.18,SE,135,0.0,6.2,67,0.00,,,0.00,WUHU216HW,2013-05-30 16:07:00,
2013-05-30 12:12:00,80.2,67.8,30.18,ESE,113,3.5,3.5,65,0.00,,,0.00,WUHU216HW,2013-05-30 16:12:00,
2013-05-30 12:18:00,80.2,67.3,30.18,SSE,158,3.1,4.6,65,0.00,,,0.00,WUHU216HW,2013-05-30 16:18:00,
2013-05-30 12:23:00,79.3,66.9,30.18,South,180,0.0,4.6,66,0.00,,,0.00,WUHU216HW,2013-05-30 16:23:00,
2013-05-30 12:28:00,80.4,67.3,30.18,ESE,113,0.0,4.4,66,0.00,,,0.00,WUHU216HW,2013-05-30 16:28:00,
2013-05-30 12:33:00,80.4,67.5,30.17,NNW,338,0.0,8.0,65,0.00,,,0.00,WUHU216HW,2013-05-30 16:33:00,
2013-05-30 12:38:00,80.2,66.9,30.17,SSE,158,2.9,8.0,64,0.00,,,0.00,WUHU216HW,2013-05-30 16:38:00,
2013-05-30 12:43:00,80.4,67.5,30.17,NE,45,1.3,6.7,65,0.00,,,0.00,WUHU216HW,2013-05-30 16:43:00,
2013-05-30 12:48:00,80.7,66.9,30.17,NE,45,0.0,6.7,63,0.00,,,0.00,WUHU216HW,2013-05-30 16:48:00,
2013-05-30 12:53:00,80.9,68.0,30.17,ESE,113,4.9,4.9,65,0.00,,,0.00,WUHU216HW,2013-05-30 16:53:00,
2013-05-30 12:59:00,81.1,67.3,30.17,West,270,0.0,4.9,63,0.00,,,0.00,WUHU216HW,2013-05-30 16:59:00,
2013-05-30 13:04:00,80.4,66.6,30.17,SE,135,0.0,6.7,63,0.00,,,0.00,WUHU216HW,2013-05-30 17:04:00,
2013-05-30 13:09:00,80.7,66.9,30.17,ESE,113,0.0,6.7,63,0.00,,,0.00,WUHU216HW,2013-05-30 17:09:00,
2013-05-30 13:14:00,82.0,67.2,30.17,SSE,158,4.0,4.9,61,0.00,,,0.00,WUHU216HW,2013-05-30 17:14:00,
2013-05-30 13:19:00,81.1,67.0,30.17,SE,135,1.5,5.1,62,0.00,,,0.00,WUHU216HW,2013-05-30 17:19:00,
2013-05-30 13:24:00,81.6,67.8,30.17,ESE,113,0.0,5.1,63,0.00,,,0.00,WUHU216HW,2013-05-30 17:24:00,
2013-05-30 13:29:00,82.7,67.4,30.16,WSW,248,0.0,4.9,60,0.00,,,0.00,WUHU216HW,2013-05-30 17:29:00,
2013-05-30 13:34:00,83.3,67.4,30.16,ENE,68,0.0,4.4,59,0.00,,,0.00,WUHU216HW,2013-05-30 17:34:00,
2013-05-30 13:39:00,83.1,67.2,30.16,East,90,2.0,4.0,59,0.00,,,0.00,WUHU216HW,2013-05-30 17:39:00,
2013-05-30 13:44:00,83.1,66.7,30.16,SE,135,0.0,6.7,58,0.00,,,0.00,WUHU216HW,2013-05-30 17:44:00,
2013-05-30 13:49:00,82.2,67.3,30.16,SSE,158,1.1,6.7,61,0.00,,,0.00,WUHU216HW,2013-05-30 17:49:00,
2013-05-30 13:55:00,82.2,67.3,30.16,ESE,113,1.7,4.9,61,0.00,,,0.00,WUHU216HW,2013-05-30 17:55:00,
2013-05-30 14:00:00,83.4,67.6,30.16,SSE,158,0.0,4.9,59,0.00,,,0.00,WUHU216HW,2013-05-30 18:00:00,
2013-05-30 14:05:00,83.3,68.0,30.15,SE,135,0.0,3.8,60,0.00,,,0.00,WUHU216HW,2013-05-30 18:05:00,
2013-05-30 14:10:00,83.3,67.4,30.15,SE,135,1.7,3.5,59,0.00,,,0.00,WUHU216HW,2013-05-30 18:10:00,
2013-05-30 14:15:00,83.3,68.9,30.15,SSE,158,2.9,4.6,62,0.00,,,0.00,WUHU216HW,2013-05-30 18:15:00,
2013-05-30 14:20:00,83.1,67.8,30.15,SE,135,0.0,4.6,60,0.00,,,0.00,WUHU216HW,2013-05-30 18:20:00,
2013-05-30 14:25:00,82.9,67.6,30.15,ESE,113,0.0,3.1,60,0.00,,,0.00,WUHU216HW,2013-05-30 18:25:00,
2013-05-30 14:30:00,83.1,67.8,30.15,ESE,113,1.1,2.6,60,0.00,,,0.00,WUHU216HW,2013-05-30 18:30:00,
2013-05-30 14:35:00,83.8,68.5,30.14,SSE,158,3.1,3.1,60,0.00,,,0.00,WUHU216HW,2013-05-30 18:35:00,
2013-05-30 14:40:00,82.9,67.1,30.15,ESE,113,0.0,3.1,60,0.00,,,0.00,WUHU216HW,2013-05-30 18:40:00,
2013-05-30 14:45:00,82.7,67.4,30.14,ESE,113,2.4,2.4,61,0.00,,,0.00,WUHU216HW,2013-05-30 18:45:00,
2013-05-30 14:50:00,82.7,67.4,30.14,ESE,113,2.6,2.6,60,0.00,,,0.00,WUHU216HW,2013-05-30 18:50:00,
2013-05-30 14:55:00,82.5,67.2,30.14,SSE,158,0.0,2.6,60,0.00,,,0.00,WUHU216HW,2013-05-30 18:55:00,
2013-05-30 15:01:00,82.5,67.7,30.13,South,180,0.0,0.0,61,0.00,,,0.00,WUHU216HW,2013-05-30 19:01:00,
2013-05-30 15:06:00,82.7,67.4,30.13,ESE,113,0.0,4.9,60,0.00,,,0.00,WUHU216HW,2013-05-30 19:06:00,
2013-05-30 15:11:00,83.4,67.6,30.13,SW,225,0.0,4.9,59,0.00,,,0.00,WUHU216HW,2013-05-30 19:11:00,
2013-05-30 15:16:00,83.6,66.6,30.12,WNW,293,1.3,4.9,57,0.00,,,0.00,WUHU216HW,2013-05-30 19:16:00,
2013-05-30 15:21:00,83.4,67.1,30.12,SW,225,1.3,5.3,58,0.00,,,0.00,WUHU216HW,2013-05-30 19:21:00,
2013-05-30 15:26:00,84.3,67.4,30.11,ESE,113,0.0,6.4,57,0.00,,,0.00,WUHU216HW,2013-05-30 19:26:00,
2013-05-30 15:31:00,86.1,68.0,30.11,ESE,113,0.0,6.4,55,0.00,,,0.00,WUHU216HW,2013-05-30 19:31:00,
2013-05-30 15:37:00,86.5,67.3,30.11,SSE,158,0.0,5.8,53,0.00,,,0.00,WUHU216HW,2013-05-30 19:37:00,
2013-05-30 15:42:00,86.1,67.9,30.11,East,90,0.0,6.0,55,0.00,,,0.00,WUHU216HW,2013-05-30 19:42:00,
2013-05-30 15:47:00,84.0,66.1,30.11,SSE,158,0.0,6.0,55,0.00,,,0.00,WUHU216HW,2013-05-30 19:47:00,
2013-05-30 15:52:00,84.5,67.1,30.11,SSE,158,0.0,4.6,56,0.00,,,0.00,WUHU216HW,2013-05-30 19:52:00,
2013-05-30 15:57:00,86.3,68.2,30.11,SE,135,0.0,2.2,55,0.00,,,0.00,WUHU216HW,2013-05-30 19:57:00,
2013-05-30 16:02:00,85.8,67.2,30.10,SSE,158,0.8,2.2,54,0.00,,,0.00,WUHU216HW,2013-05-30 20:02:00,
2013-05-30 16:07:00,85.2,67.2,30.10,ESE,113,1.1,5.3,55,0.00,,,0.00,WUHU216HW,2013-05-30 20:07:00,
2013-05-30 16:12:00,85.8,67.5,30.10,ENE,68,0.0,5.3,54,0.00,,,0.00,WUHU216HW,2013-05-30 20:12:00,
2013-05-30 16:17:00,86.1,68.0,30.10,SSE,158,0.0,4.0,56,0.00,,,0.00,WUHU216HW,2013-05-30 20:17:00,
2013-05-30 16:22:00,86.1,68.0,30.10,SE,135,3.8,3.8,55,0.00,,,0.00,WUHU216HW,2013-05-30 20:22:00,
2013-05-30 16:27:00,86.7,66.9,30.10,ESE,113,0.0,5.3,53,0.00,,,0.00,WUHU216HW,2013-05-30 20:27:00,
2013-05-30 16:33:00,86.7,68.0,30.09,SE,135,2.9,5.3,54,0.00,,,0.00,WUHU216HW,2013-05-30 20:33:00,
2013-05-30 16:38:00,86.7,68.0,30.09,ESE,113,0.8,3.8,54,0.00,,,0.00,WUHU216HW,2013-05-30 20:38:00,
2013-05-30 16:43:00,86.9,67.6,30.09,SE,135,0.0,4.6,53,0.00,,,0.00,WUHU216HW,2013-05-30 20:43:00,
2013-05-30 16:48:00,86.7,67.5,30.09,ESE,113,1.7,4.6,53,0.00,,,0.00,WUHU216HW,2013-05-30 20:48:00,
2013-05-30 16:53:00,87.0,67.8,30.09,NE,45,0.0,4.2,53,0.00,,,0.00,WUHU216HW,2013-05-30 20:53:00,
2013-05-30 16:58:00,86.5,66.8,30.09,ESE,113,9.8,9.8,52,0.00,,,0.00,WUHU216HW,2013-05-30 20:58:00,
2013-05-30 17:03:00,85.8,66.7,30.08,SSE,158,3.3,9.8,53,0.00,,,0.00,WUHU216HW,2013-05-30 21:03:00,
2013-05-30 17:08:00,85.8,67.7,30.08,SSE,158,3.3,3.3,55,0.00,,,0.00,WUHU216HW,2013-05-30 21:08:00,
2013-05-30 17:13:00,85.1,66.5,30.08,SE,135,1.1,3.3,54,0.00,,,0.00,WUHU216HW,2013-05-30 21:13:00,
2013-05-30 17:18:00,85.2,67.7,30.08,SE,135,2.0,2.4,56,0.00,,,0.00,WUHU216HW,2013-05-30 21:18:00,
2013-05-30 17:23:00,86.1,67.0,30.08,South,180,5.1,5.1,54,0.00,,,0.00,WUHU216HW,2013-05-30 21:23:00,
2013-05-30 17:28:00,86.5,67.8,30.08,SE,135,0.0,5.1,54,0.00,,,0.00,WUHU216HW,2013-05-30 21:28:00,
2013-05-30 17:33:00,86.3,67.7,30.07,ESE,113,6.0,6.0,53,0.00,,,0.00,WUHU216HW,2013-05-30 21:33:00,
2013-05-30 17:38:00,85.2,66.9,30.08,SSW,203,2.9,6.0,54,0.00,,,0.00,WUHU216HW,2013-05-30 21:38:00,
2013-05-30 17:44:00,84.9,67.4,30.07,East,90,0.0,4.2,56,0.00,,,0.00,WUHU216HW,2013-05-30 21:44:00,
2013-05-30 17:49:00,85.1,67.1,30.07,SSE,158,0.0,4.2,55,0.00,,,0.00,WUHU216HW,2013-05-30 21:49:00,
2013-05-30 17:54:00,84.9,67.4,30.07,SE,135,0.0,3.3,56,0.00,,,0.00,WUHU216HW,2013-05-30 21:54:00,
2013-05-30 17:59:00,84.2,66.2,30.07,South,180,2.0,4.0,55,0.00,,,0.00,WUHU216HW,2013-05-30 21:59:00,
2013-05-30 18:04:00,84.0,66.6,30.07,SE,135,0.0,4.0,56,0.00,,,0.00,WUHU216HW,2013-05-30 22:04:00,
2013-05-30 18:09:00,84.0,67.3,30.07,SE,135,0.0,4.4,58,0.00,,,0.00,WUHU216HW,2013-05-30 22:09:00,
2013-05-30 18:14:00,83.8,66.9,30.07,SSW,203,0.0,4.4,57,0.00,,,0.00,WUHU216HW,2013-05-30 22:14:00,
2013-05-30 18:19:00,83.8,67.4,30.07,SE,135,1.5,2.4,58,0.00,,,0.00,WUHU216HW,2013-05-30 22:19:00,
2013-05-30 18:24:00,83.3,66.2,30.06,SSE,158,3.5,3.5,58,0.00,,,0.00,WUHU216HW,2013-05-30 22:24:00,
2013-05-30 18:29:00,83.3,66.9,30.06,SE,135,0.0,3.5,58,0.00,,,0.00,WUHU216HW,2013-05-30 22:29:00,
2013-05-30 18:34:00,83.1,66.7,30.07,SE,135,2.6,2.6,58,0.00,,,0.00,WUHU216HW,2013-05-30 22:34:00,
2013-05-30 18:39:00,83.4,67.1,30.07,SE,135,0.4,2.6,58,0.00,,,0.00,WUHU216HW,2013-05-30 22:39:00,
2013-05-30 18:44:00,83.3,68.0,30.07,SSE,158,0.0,1.3,60,0.00,,,0.00,WUHU216HW,2013-05-30 22:44:00,
2013-05-30 18:50:00,82.9,67.6,30.07,SSE,158,0.0,1.1,60,0.00,,,0.00,WUHU216HW,2013-05-30 22:50:00,
2013-05-30 18:55:00,82.9,67.6,30.07,SSE,158,2.2,2.2,60,0.00,,,0.00,WUHU216HW,2013-05-30 22:55:00,
2013-05-30 19:00:00,83.3,67.8,30.07,East,90,0.0,2.2,60,0.00,,,0.00,WUHU216HW,2013-05-30 23:00:00,
2013-05-30 19:05:00,83.1,67.8,30.07,SSE,158,0.0,1.5,59,0.00,,,0.00,WUHU216HW,2013-05-30 23:05:00,
2013-05-30 19:10:00,83.1,67.8,30.06,SSE,158,0.0,1.5,60,0.00,,,0.00,WUHU216HW,2013-05-30 23:10:00,
2013-05-30 19:15:00,82.9,67.6,30.06,ENE,68,0.0,0.8,60,0.00,,,0.00,WUHU216HW,2013-05-30 23:15:00,
2013-05-30 19:20:00,82.2,67.1,30.06,SE,135,0.0,5.1,61,0.00,,,0.00,WUHU216HW,2013-05-30 23:20:00,
2013-05-30 19:25:00,81.6,66.9,30.07,ESE,113,0.0,2.0,61,0.00,,,0.00,WUHU216HW,2013-05-30 23:25:00,
2013-05-30 19:30:00,81.3,66.5,30.06,East,90,0.0,2.0,61,0.00,,,0.00,WUHU216HW,2013-05-30 23:30:00,
2013-05-30 19:36:00,81.1,66.4,30.06,SE,135,0.0,1.7,61,0.00,,,0.00,WUHU216HW,2013-05-30 23:36:00,
2013-05-30 19:41:00,81.3,67.0,30.07,SSE,158,0.0,1.7,62,0.00,,,0.00,WUHU216HW,2013-05-30 23:41:00,
2013-05-30 19:46:00,81.1,66.8,30.07,East,90,0.0,0.0,62,0.00,,,0.00,WUHU216HW,2013-05-30 23:46:00,
2013-05-30 19:51:00,81.3,66.4,30.07,SE,135,0.0,0.0,62,0.00,,,0.00,WUHU216HW,2013-05-30 23:51:00,
2013-05-30 19:56:00,80.9,66.2,30.07,SE,135,0.0,1.5,61,0.00,,,0.00,WUHU216HW,2013-05-30 23:56:00,
2013-05-30 20:01:00,80.7,66.5,30.08,East,90,0.0,1.5,62,0.00,,,0.00,WUHU216HW,2013-05-31 00:01:00,
2013-05-30 20:06:00,80.6,66.8,30.08,SSE,158,0.0,0.0,62,0.00,,,0.00,WUHU216HW,2013-05-31 00:06:00,
2013-05-30 20:11:00,80.4,66.6,30.07,SSE,158,0.0,0.0,62,0.00,,,0.00,WUHU216HW,2013-05-31 00:11:00,
2013-05-30 20:16:00,80.4,66.6,30.08,ESE,113,0.0,0.0,63,0.00,,,0.00,WUHU216HW,2013-05-31 00:16:00,
2013-05-30 20:21:00,79.7,67.3,30.08,SSE,158,0.0,0.0,66,0.00,,,0.00,WUHU216HW,2013-05-31 00:21:00,
2013-05-30 20:26:00,79.3,66.9,30.07,ESE,113,0.0,0.0,66,0.00,,,0.00,WUHU216HW,2013-05-31 00:26:00,
2013-05-30 20:31:00,79.3,66.0,30.08,South,180,0.0,0.0,64,0.00,,,0.00,WUHU216HW,2013-05-31 00:31:00,
2013-05-30 20:37:00,79.3,66.5,30.07,SSE,158,0.0,0.0,65,0.00,,,0.00,WUHU216HW,2013-05-31 00:37:00,
2013-05-30 20:42:00,78.6,65.8,30.08,SSE,158,0.0,0.0,66,0.00,,,0.00,WUHU216HW,2013-05-31 00:42:00,
2013-05-30 20:47:00,78.0,65.7,30.07,SSE,158,0.8,0.8,66,0.00,,,0.00,WUHU216HW,2013-05-31 00:47:00,
2013-05-30 20:52:00,77.7,65.8,30.08,East,90,0.0,2.9,67,0.00,,,0.00,WUHU216HW,2013-05-31 00:52:00,
2013-05-30 20:57:00,77.9,66.0,30.08,SSE,158,0.0,2.9,67,0.00,,,0.00,WUHU216HW,2013-05-31 00:57:00,
2013-05-30 21:02:00,77.7,66.7,30.08,SSE,158,0.0,0.0,68,0.00,,,0.00,WUHU216HW,2013-05-31 01:02:00,
2013-05-30 21:07:00,77.3,65.9,30.08,SSE,158,0.0,0.0,68,0.00,,,0.00,WUHU216HW,2013-05-31 01:07:00,
2013-05-30 21:12:00,76.8,65.9,30.08,SSE,158,0.0,0.0,69,0.00,,,0.00,WUHU216HW,2013-05-31 01:12:00,
2013-05-30 21:17:00,76.4,66.0,30.08,SSE,158,0.0,0.0,70,0.00,,,0.00,WUHU216HW,2013-05-31 01:17:00,
2013-05-30 21:22:00,76.2,66.0,30.08,SSE,158,0.0,0.0,71,0.00,,,0.00,WUHU216HW,2013-05-31 01:22:00,
2013-05-30 21:27:00,75.7,66.0,30.08,SSE,158,0.0,0.0,72,0.00,,,0.00,WUHU216HW,2013-05-31 01:27:00,
2013-05-30 21:32:00,75.5,65.8,30.08,SSE,158,0.0,0.0,72,0.00,,,0.00,WUHU216HW,2013-05-31 01:32:00,
2013-05-30 21:37:00,75.7,66.0,30.08,SSE,158,0.0,0.0,72,0.00,,,0.00,WUHU216HW,2013-05-31 01:37:00,
2013-05-30 21:42:00,75.0,65.7,30.08,SSE,158,0.0,0.0,72,0.00,,,0.00,WUHU216HW,2013-05-31 01:42:00,
2013-05-30 21:47:00,74.8,65.6,30.08,SSE,158,0.0,0.0,73,0.00,,,0.00,WUHU216HW,2013-05-31 01:47:00,
2013-05-30 21:53:00,74.8,66.0,30.08,SSE,158,0.0,0.0,74,0.00,,,0.00,WUHU216HW,2013-05-31 01:53:00,
2013-05-30 21:58:00,74.6,65.4,30.08,SSE,158,0.0,0.0,73,0.00,,,0.00,WUHU216HW,2013-05-31 01:58:00,
2013-05-30 22:03:00,74.1,65.7,30.08,SSE,158,0.0,0.0,75,0.00,,,0.00,WUHU216HW,2013-05-31 02:03:00,
2013-05-30 22:08:00,74.1,65.3,30.09,SSE,158,0.0,0.0,74,0.00,,,0.00,WUHU216HW,2013-05-31 02:08:00,
2013-05-30 22:13:00,74.1,65.3,30.09,SSE,158,0.0,0.0,74,0.00,,,0.00,WUHU216HW,2013-05-31 02:13:00,
2013-05-30 22:18:00,73.9,65.1,30.09,SSE,158,0.0,0.0,74,0.00,,,0.00,WUHU216HW,2013-05-31 02:18:00,
2013-05-30 22:23:00,73.5,65.2,30.09,SSE,158,0.0,0.0,75,0.00,,,0.00,WUHU216HW,2013-05-31 02:23:00,
2013-05-30 22:28:00,73.4,65.0,30.09,SSE,158,0.0,0.0,75,0.00,,,0.00,WUHU216HW,2013-05-31 02:28:00,
2013-05-30 22:33:00,73.2,64.8,30.09,SSE,158,0.0,0.0,75,0.00,,,0.00,WUHU216HW,2013-05-31 02:33:00,
2013-05-30 22:38:00,73.2,65.2,30.09,SSE,158,0.0,0.0,76,0.00,,,0.00,WUHU216HW,2013-05-31 02:38:00,
2013-05-30 22:44:00,73.2,64.8,30.09,SSE,158,0.0,0.0,76,0.00,,,0.00,WUHU216HW,2013-05-31 02:44:00,
2013-05-30 22:49:00,73.2,64.8,30.10,SSE,158,0.0,0.0,75,0.00,,,0.00,WUHU216HW,2013-05-31 02:49:00,
2013-05-30 22:54:00,73.2,65.2,30.09,SSE,158,0.0,0.0,76,0.00,,,0.00,WUHU216HW,2013-05-31 02:54:00,
2013-05-30 22:59:00,73.2,65.2,30.10,SSE,158,0.0,0.0,76,0.00,,,0.00,WUHU216HW,2013-05-31 02:59:00,
2013-05-30 23:04:00,72.3,64.3,30.10,SSE,158,0.0,0.0,76,0.00,,,0.00,WUHU216HW,2013-05-31 03:04:00,
2013-05-30 23:09:00,71.9,64.7,30.10,SSE,158,0.0,0.0,78,0.00,,,0.00,WUHU216HW,2013-05-31 03:09:00,
2013-05-30 23:14:00,71.7,64.5,30.10,SSE,158,0.0,0.0,78,0.00,,,0.00,WUHU216HW,2013-05-31 03:14:00,
2013-05-30 23:19:00,71.4,64.1,30.10,SSE,158,0.0,0.0,78,0.00,,,0.00,WUHU216HW,2013-05-31 03:19:00,
2013-05-30 23:24:00,71.4,64.1,30.10,SSE,158,0.0,0.0,78,0.00,,,0.00,WUHU216HW,2013-05-31 03:24:00,
2013-05-30 23:29:00,71.4,64.1,30.10,SSE,158,0.0,0.0,78,0.00,,,0.00,WUHU216HW,2013-05-31 03:29:00,
2013-05-30 23:35:00,71.2,64.0,30.10,SSE,158,0.0,0.0,78,0.00,,,0.00,WUHU216HW,2013-05-31 03:35:00,
2013-05-30 23:40:00,71.2,64.0,30.10,SSE,158,0.0,0.0,78,0.00,,,0.00,WUHU216HW,2013-05-31 03:40:00,
2013-05-30 23:45:00,71.2,64.0,30.10,SSE,158,0.0,0.0,78,0.00,,,0.00,WUHU216HW,2013-05-31 03:45:00,
2013-05-30 23:50:00,71.4,64.1,30.10,SSE,158,0.0,0.0,78,0.00,,,0.00,WUHU216HW,2013-05-31 03:50:00,
2013-05-30 23:55:00,71.2,64.0,30.10,SSE,158,0.0,0.0,78,0.00,,,0.00,WUHU216HW,2013-05-31 03:55:00,